sensor_id;sensor_type;location;lat;lon;timestamp;temperature;humidity
80495;DHT22;69819;48.798;11.770;2024-02-16T00:00:27;10.20;57.10
80495;DHT22;69819;48.798;11.770;2024-02-16T00:02:53;10.10;57.20
80495;DHT22;69819;48.798;11.770;2024-02-16T00:05:19;10.10;57.20
80495;DHT22;69819;48.798;11.770;2024-02-16T00:07:44;10.10;57.40
80495;DHT22;69819;48.798;11.770;2024-02-16T00:10:11;10.00;57.40
80495;DHT22;69819;48.798;11.770;2024-02-16T00:12:39;10.00;57.40
80495;DHT22;69819;48.798;11.770;2024-02-16T00:15:06;10.00;57.40
80495;DHT22;69819;48.798;11.770;2024-02-16T00:17:32;10.00;57.40
80495;DHT22;69819;48.798;11.770;2024-02-16T00:19:59;10.00;57.40
80495;DHT22;69819;48.798;11.770;2024-02-16T00:22:25;9.90;58.30
80495;DHT22;69819;48.798;11.770;2024-02-16T00:24:51;9.90;58.30
80495;DHT22;69819;48.798;11.770;2024-02-16T00:27:17;9.90;58.20
80495;DHT22;69819;48.798;11.770;2024-02-16T00:29:43;9.90;58.30
80495;DHT22;69819;48.798;11.770;2024-02-16T00:32:09;9.80;58.00
80495;DHT22;69819;48.798;11.770;2024-02-16T00:34:36;9.80;58.20
80495;DHT22;69819;48.798;11.770;2024-02-16T00:37:03;9.80;58.20
80495;DHT22;69819;48.798;11.770;2024-02-16T00:39:36;9.80;58.10
80495;DHT22;69819;48.798;11.770;2024-02-16T00:42:03;9.80;58.10
80495;DHT22;69819;48.798;11.770;2024-02-16T00:44:29;9.70;58.00
80495;DHT22;69819;48.798;11.770;2024-02-16T00:46:54;9.70;58.00
80495;DHT22;69819;48.798;11.770;2024-02-16T00:49:20;9.60;58.00
80495;DHT22;69819;48.798;11.770;2024-02-16T00:51:46;9.60;58.60
80495;DHT22;69819;48.798;11.770;2024-02-16T00:54:12;9.60;58.10
80495;DHT22;69819;48.798;11.770;2024-02-16T00:56:38;9.50;58.00
80495;DHT22;69819;48.798;11.770;2024-02-16T00:59:04;9.50;58.00
80495;DHT22;69819;48.798;11.770;2024-02-16T01:01:30;9.40;57.90
80495;DHT22;69819;48.798;11.770;2024-02-16T01:03:56;9.40;58.00
80495;DHT22;69819;48.798;11.770;2024-02-16T01:06:22;9.30;57.90
80495;DHT22;69819;48.798;11.770;2024-02-16T01:08:47;9.30;58.00
80495;DHT22;69819;48.798;11.770;2024-02-16T01:11:13;9.30;58.10
80495;DHT22;69819;48.798;11.770;2024-02-16T01:13:40;9.20;58.10
80495;DHT22;69819;48.798;11.770;2024-02-16T01:16:06;9.30;58.20
80495;DHT22;69819;48.798;11.770;2024-02-16T01:18:32;9.20;58.20
80495;DHT22;69819;48.798;11.770;2024-02-16T01:20:59;9.20;58.30
80495;DHT22;69819;48.798;11.770;2024-02-16T01:23:24;9.20;58.40
80495;DHT22;69819;48.798;11.770;2024-02-16T01:25:50;9.20;58.40
80495;DHT22;69819;48.798;11.770;2024-02-16T01:28:16;9.20;59.00
80495;DHT22;69819;48.798;11.770;2024-02-16T01:30:42;9.20;59.20
80495;DHT22;69819;48.798;11.770;2024-02-16T01:33:08;9.20;58.70
80495;DHT22;69819;48.798;11.770;2024-02-16T01:35:34;9.20;58.80
80495;DHT22;69819;48.798;11.770;2024-02-16T01:38:01;9.30;59.00
80495;DHT22;69819;48.798;11.770;2024-02-16T01:40:28;9.30;59.00
80495;DHT22;69819;48.798;11.770;2024-02-16T01:42:54;9.30;59.00
80495;DHT22;69819;48.798;11.770;2024-02-16T01:45:20;9.40;59.00
80495;DHT22;69819;48.798;11.770;2024-02-16T01:47:50;9.40;59.10
80495;DHT22;69819;48.798;11.770;2024-02-16T01:50:17;9.40;59.30
80495;DHT22;69819;48.798;11.770;2024-02-16T01:52:45;9.50;59.30
80495;DHT22;69819;48.798;11.770;2024-02-16T01:55:13;9.50;59.30
80495;DHT22;69819;48.798;11.770;2024-02-16T01:57:46;9.50;59.30
80495;DHT22;69819;48.798;11.770;2024-02-16T02:00:13;9.60;59.60
80495;DHT22;69819;48.798;11.770;2024-02-16T02:02:45;9.60;59.30
80495;DHT22;69819;48.798;11.770;2024-02-16T02:05:11;9.60;59.20
80495;DHT22;69819;48.798;11.770;2024-02-16T02:07:38;9.70;59.20
80495;DHT22;69819;48.798;11.770;2024-02-16T02:10:04;9.70;59.20
80495;DHT22;69819;48.798;11.770;2024-02-16T02:12:30;9.70;59.20
80495;DHT22;69819;48.798;11.770;2024-02-16T02:14:56;9.70;59.10
80495;DHT22;69819;48.798;11.770;2024-02-16T02:17:22;9.80;59.30
80495;DHT22;69819;48.798;11.770;2024-02-16T02:19:48;9.80;59.40
80495;DHT22;69819;48.798;11.770;2024-02-16T02:22:16;9.80;59.50
80495;DHT22;69819;48.798;11.770;2024-02-16T02:24:46;9.90;59.70
80495;DHT22;69819;48.798;11.770;2024-02-16T02:27:14;9.90;59.70
80495;DHT22;69819;48.798;11.770;2024-02-16T02:29:41;10.00;58.90
80495;DHT22;69819;48.798;11.770;2024-02-16T02:32:08;10.00;58.90
80495;DHT22;69819;48.798;11.770;2024-02-16T02:34:35;10.10;59.00
80495;DHT22;69819;48.798;11.770;2024-02-16T02:37:02;10.10;58.90
80495;DHT22;69819;48.798;11.770;2024-02-16T02:39:29;10.20;59.00
80495;DHT22;69819;48.798;11.770;2024-02-16T02:41:55;10.20;58.90
80495;DHT22;69819;48.798;11.770;2024-02-16T02:44:22;10.20;58.90
80495;DHT22;69819;48.798;11.770;2024-02-16T02:46:47;10.30;59.00
80495;DHT22;69819;48.798;11.770;2024-02-16T02:49:13;10.30;59.00
80495;DHT22;69819;48.798;11.770;2024-02-16T02:51:39;10.40;59.10
80495;DHT22;69819;48.798;11.770;2024-02-16T02:54:05;10.40;59.10
80495;DHT22;69819;48.798;11.770;2024-02-16T02:56:30;10.40;59.10
80495;DHT22;69819;48.798;11.770;2024-02-16T02:58:57;10.40;59.10
80495;DHT22;69819;48.798;11.770;2024-02-16T03:01:23;10.50;59.10
80495;DHT22;69819;48.798;11.770;2024-02-16T03:03:48;10.50;59.10
80495;DHT22;69819;48.798;11.770;2024-02-16T03:06:18;10.50;58.90
80495;DHT22;69819;48.798;11.770;2024-02-16T03:08:44;10.50;59.00
80495;DHT22;69819;48.798;11.770;2024-02-16T03:11:10;10.50;58.90
80495;DHT22;69819;48.798;11.770;2024-02-16T03:13:37;10.50;58.90
80495;DHT22;69819;48.798;11.770;2024-02-16T03:16:03;10.50;58.80
80495;DHT22;69819;48.798;11.770;2024-02-16T03:18:30;10.50;58.70
80495;DHT22;69819;48.798;11.770;2024-02-16T03:20:57;10.60;58.90
80495;DHT22;69819;48.798;11.770;2024-02-16T03:23:23;10.60;58.70
80495;DHT22;69819;48.798;11.770;2024-02-16T03:25:49;10.50;58.70
80495;DHT22;69819;48.798;11.770;2024-02-16T03:28:15;10.50;58.60
80495;DHT22;69819;48.798;11.770;2024-02-16T03:30:41;10.50;58.60
80495;DHT22;69819;48.798;11.770;2024-02-16T03:33:08;10.50;58.80
80495;DHT22;69819;48.798;11.770;2024-02-16T03:35:35;10.50;58.80
80495;DHT22;69819;48.798;11.770;2024-02-16T03:38:02;10.50;58.80
80495;DHT22;69819;48.798;11.770;2024-02-16T03:40:30;10.40;58.80
80495;DHT22;69819;48.798;11.770;2024-02-16T03:42:57;10.50;58.90
80495;DHT22;69819;48.798;11.770;2024-02-16T03:45:23;10.50;58.90
80495;DHT22;69819;48.798;11.770;2024-02-16T03:47:50;10.50;58.90
80495;DHT22;69819;48.798;11.770;2024-02-16T03:50:18;10.40;58.80
80495;DHT22;69819;48.798;11.770;2024-02-16T03:52:45;10.50;58.90
80495;DHT22;69819;48.798;11.770;2024-02-16T03:55:11;10.40;58.80
80495;DHT22;69819;48.798;11.770;2024-02-16T03:57:37;10.50;59.00
80495;DHT22;69819;48.798;11.770;2024-02-16T04:00:03;10.40;59.00
80495;DHT22;69819;48.798;11.770;2024-02-16T04:02:31;10.40;59.00
80495;DHT22;69819;48.798;11.770;2024-02-16T04:04:57;10.40;59.10
80495;DHT22;69819;48.798;11.770;2024-02-16T04:07:23;10.40;59.10
80495;DHT22;69819;48.798;11.770;2024-02-16T04:09:49;10.40;59.00
80495;DHT22;69819;48.798;11.770;2024-02-16T04:12:15;10.50;59.10
80495;DHT22;69819;48.798;11.770;2024-02-16T04:14:41;10.50;59.10
80495;DHT22;69819;48.798;11.770;2024-02-16T04:17:09;10.50;59.10
80495;DHT22;69819;48.798;11.770;2024-02-16T04:19:36;10.50;59.10
80495;DHT22;69819;48.798;11.770;2024-02-16T04:22:03;10.50;59.10
80495;DHT22;69819;48.798;11.770;2024-02-16T04:24:29;10.50;59.00
80495;DHT22;69819;48.798;11.770;2024-02-16T04:26:55;10.40;58.90
80495;DHT22;69819;48.798;11.770;2024-02-16T04:29:21;10.50;59.00
80495;DHT22;69819;48.798;11.770;2024-02-16T04:31:47;10.50;58.90
80495;DHT22;69819;48.798;11.770;2024-02-16T04:34:13;10.40;58.80
80495;DHT22;69819;48.798;11.770;2024-02-16T04:36:40;10.50;58.90
80495;DHT22;69819;48.798;11.770;2024-02-16T04:39:06;10.40;58.80
80495;DHT22;69819;48.798;11.770;2024-02-16T04:41:32;10.40;58.60
80495;DHT22;69819;48.798;11.770;2024-02-16T04:43:58;10.40;58.50
80495;DHT22;69819;48.798;11.770;2024-02-16T04:46:23;10.40;58.50
80495;DHT22;69819;48.798;11.770;2024-02-16T04:48:49;10.40;58.50
80495;DHT22;69819;48.798;11.770;2024-02-16T04:51:15;10.30;58.40
80495;DHT22;69819;48.798;11.770;2024-02-16T04:53:41;10.30;58.40
80495;DHT22;69819;48.798;11.770;2024-02-16T04:56:06;10.30;58.50
80495;DHT22;69819;48.798;11.770;2024-02-16T04:58:32;10.30;58.60
80495;DHT22;69819;48.798;11.770;2024-02-16T05:00:59;10.30;58.60
80495;DHT22;69819;48.798;11.770;2024-02-16T05:03:25;10.20;58.60
80495;DHT22;69819;48.798;11.770;2024-02-16T05:05:51;10.20;58.60
80495;DHT22;69819;48.798;11.770;2024-02-16T05:08:22;10.20;58.60
80495;DHT22;69819;48.798;11.770;2024-02-16T05:10:48;10.20;58.80
80495;DHT22;69819;48.798;11.770;2024-02-16T05:13:14;10.10;58.70
80495;DHT22;69819;48.798;11.770;2024-02-16T05:15:39;10.20;58.90
80495;DHT22;69819;48.798;11.770;2024-02-16T05:18:05;10.10;58.80
80495;DHT22;69819;48.798;11.770;2024-02-16T05:20:32;10.20;58.90
80495;DHT22;69819;48.798;11.770;2024-02-16T05:22:58;10.10;58.90
80495;DHT22;69819;48.798;11.770;2024-02-16T05:25:23;10.20;59.00
80495;DHT22;69819;48.798;11.770;2024-02-16T05:27:49;10.20;59.00
80495;DHT22;69819;48.798;11.770;2024-02-16T05:30:15;10.10;58.90
80495;DHT22;69819;48.798;11.770;2024-02-16T05:32:44;10.20;59.00
80495;DHT22;69819;48.798;11.770;2024-02-16T05:35:13;10.20;59.10
80495;DHT22;69819;48.798;11.770;2024-02-16T05:37:48;10.20;58.90
80495;DHT22;69819;48.798;11.770;2024-02-16T05:40:17;10.20;59.10
80495;DHT22;69819;48.798;11.770;2024-02-16T05:42:54;10.20;59.00
80495;DHT22;69819;48.798;11.770;2024-02-16T05:45:24;10.20;59.10
80495;DHT22;69819;48.798;11.770;2024-02-16T05:47:53;10.30;59.10
80495;DHT22;69819;48.798;11.770;2024-02-16T05:50:20;10.20;59.10
80495;DHT22;69819;48.798;11.770;2024-02-16T05:52:47;10.30;59.20
80495;DHT22;69819;48.798;11.770;2024-02-16T05:55:15;10.30;59.10
80495;DHT22;69819;48.798;11.770;2024-02-16T05:57:41;10.30;59.10
80495;DHT22;69819;48.798;11.770;2024-02-16T06:00:07;10.40;59.10
80495;DHT22;69819;48.798;11.770;2024-02-16T06:02:36;10.40;59.30
80495;DHT22;69819;48.798;11.770;2024-02-16T06:05:03;10.40;59.20
80495;DHT22;69819;48.798;11.770;2024-02-16T06:07:30;10.40;59.40
80495;DHT22;69819;48.798;11.770;2024-02-16T06:09:56;10.50;59.40
80495;DHT22;69819;48.798;11.770;2024-02-16T06:12:23;10.40;59.30
80495;DHT22;69819;48.798;11.770;2024-02-16T06:14:49;10.50;59.50
80495;DHT22;69819;48.798;11.770;2024-02-16T06:17:16;10.50;59.60
80495;DHT22;69819;48.798;11.770;2024-02-16T06:19:42;10.60;59.70
80495;DHT22;69819;48.798;11.770;2024-02-16T06:22:08;10.60;59.70
80495;DHT22;69819;48.798;11.770;2024-02-16T06:24:35;10.70;59.80
80495;DHT22;69819;48.798;11.770;2024-02-16T06:27:01;10.70;59.90
80495;DHT22;69819;48.798;11.770;2024-02-16T06:29:28;10.80;60.00
80495;DHT22;69819;48.798;11.770;2024-02-16T06:31:56;10.80;59.90
80495;DHT22;69819;48.798;11.770;2024-02-16T06:34:22;10.90;59.90
80495;DHT22;69819;48.798;11.770;2024-02-16T06:36:48;11.00;60.00
80495;DHT22;69819;48.798;11.770;2024-02-16T06:39:15;11.00;60.10
80495;DHT22;69819;48.798;11.770;2024-02-16T06:41:47;11.10;60.50
80495;DHT22;69819;48.798;11.770;2024-02-16T06:44:13;11.20;60.60
80495;DHT22;69819;48.798;11.770;2024-02-16T06:46:40;11.30;60.80
80495;DHT22;69819;48.798;11.770;2024-02-16T06:49:06;11.50;61.10
80495;DHT22;69819;48.798;11.770;2024-02-16T06:51:32;11.70;61.10
80495;DHT22;69819;48.798;11.770;2024-02-16T06:53:58;11.90;60.80
80495;DHT22;69819;48.798;11.770;2024-02-16T06:56:24;12.00;60.20
80495;DHT22;69819;48.798;11.770;2024-02-16T06:58:50;12.10;59.80
80495;DHT22;69819;48.798;11.770;2024-02-16T07:01:16;12.30;59.80
80495;DHT22;69819;48.798;11.770;2024-02-16T07:03:44;12.30;59.50
80495;DHT22;69819;48.798;11.770;2024-02-16T07:06:10;12.40;59.30
80495;DHT22;69819;48.798;11.770;2024-02-16T07:08:39;12.40;59.70
80495;DHT22;69819;48.798;11.770;2024-02-16T07:11:06;12.50;59.20
80495;DHT22;69819;48.798;11.770;2024-02-16T07:13:34;12.50;59.10
80495;DHT22;69819;48.798;11.770;2024-02-16T07:16:00;12.50;59.00
80495;DHT22;69819;48.798;11.770;2024-02-16T07:18:26;12.50;58.80
80495;DHT22;69819;48.798;11.770;2024-02-16T07:20:51;12.50;58.80
80495;DHT22;69819;48.798;11.770;2024-02-16T07:23:17;12.50;58.80
80495;DHT22;69819;48.798;11.770;2024-02-16T07:25:43;12.40;58.70
80495;DHT22;69819;48.798;11.770;2024-02-16T07:28:09;12.50;58.80
80495;DHT22;69819;48.798;11.770;2024-02-16T07:30:35;12.50;58.80
80495;DHT22;69819;48.798;11.770;2024-02-16T07:33:06;12.50;58.80
80495;DHT22;69819;48.798;11.770;2024-02-16T07:35:36;12.50;58.90
80495;DHT22;69819;48.798;11.770;2024-02-16T07:38:03;12.50;59.00
80495;DHT22;69819;48.798;11.770;2024-02-16T07:40:30;12.60;59.10
80495;DHT22;69819;48.798;11.770;2024-02-16T07:42:57;12.60;59.20
80495;DHT22;69819;48.798;11.770;2024-02-16T07:45:23;12.80;59.60
80495;DHT22;69819;48.798;11.770;2024-02-16T07:47:49;12.80;59.80
80495;DHT22;69819;48.798;11.770;2024-02-16T07:50:21;13.00;60.00
80495;DHT22;69819;48.798;11.770;2024-02-16T07:52:48;13.10;60.10
80495;DHT22;69819;48.798;11.770;2024-02-16T07:55:15;13.40;60.20
80495;DHT22;69819;48.798;11.770;2024-02-16T07:57:44;13.50;60.00
80495;DHT22;69819;48.798;11.770;2024-02-16T08:00:10;13.70;59.80
80495;DHT22;69819;48.798;11.770;2024-02-16T08:02:37;13.90;59.60
80495;DHT22;69819;48.798;11.770;2024-02-16T08:05:04;14.00;59.40
80495;DHT22;69819;48.798;11.770;2024-02-16T08:07:31;14.20;59.00
80495;DHT22;69819;48.798;11.770;2024-02-16T08:09:57;14.20;58.50
80495;DHT22;69819;48.798;11.770;2024-02-16T08:12:23;14.30;58.20
80495;DHT22;69819;48.798;11.770;2024-02-16T08:14:51;14.30;58.10
80495;DHT22;69819;48.798;11.770;2024-02-16T08:17:16;14.30;57.90
80495;DHT22;69819;48.798;11.770;2024-02-16T08:19:42;14.30;57.80
80495;DHT22;69819;48.798;11.770;2024-02-16T08:22:08;14.30;57.80
80495;DHT22;69819;48.798;11.770;2024-02-16T08:24:37;14.40;58.00
80495;DHT22;69819;48.798;11.770;2024-02-16T08:27:03;14.40;58.00
80495;DHT22;69819;48.798;11.770;2024-02-16T08:29:30;14.40;58.10
80495;DHT22;69819;48.798;11.770;2024-02-16T08:31:56;14.40;58.20
80495;DHT22;69819;48.798;11.770;2024-02-16T08:34:22;14.60;58.30
80495;DHT22;69819;48.798;11.770;2024-02-16T08:36:49;14.60;58.30
80495;DHT22;69819;48.798;11.770;2024-02-16T08:39:16;14.80;58.50
80495;DHT22;69819;48.798;11.770;2024-02-16T08:41:43;14.80;58.30
80495;DHT22;69819;48.798;11.770;2024-02-16T08:44:15;15.00;58.70
80495;DHT22;69819;48.798;11.770;2024-02-16T08:46:40;15.30;59.60
80495;DHT22;69819;48.798;11.770;2024-02-16T08:49:06;15.60;61.00
80495;DHT22;69819;48.798;11.770;2024-02-16T08:51:33;16.10;62.30
80495;DHT22;69819;48.798;11.770;2024-02-16T08:54:01;16.80;63.00
80495;DHT22;69819;48.798;11.770;2024-02-16T08:56:27;17.50;62.50
80495;DHT22;69819;48.798;11.770;2024-02-16T08:58:54;18.10;61.70
80495;DHT22;69819;48.798;11.770;2024-02-16T09:01:33;18.70;60.10
80495;DHT22;69819;48.798;11.770;2024-02-16T09:04:03;19.00;58.10
80495;DHT22;69819;48.798;11.770;2024-02-16T09:06:29;19.30;57.60
80495;DHT22;69819;48.798;11.770;2024-02-16T09:08:56;19.50;57.70
80495;DHT22;69819;48.798;11.770;2024-02-16T09:11:23;19.70;58.70
80495;DHT22;69819;48.798;11.770;2024-02-16T09:13:49;20.00;58.40
80495;DHT22;69819;48.798;11.770;2024-02-16T09:16:15;20.40;58.60
80495;DHT22;69819;48.798;11.770;2024-02-16T09:18:41;20.80;58.40
80495;DHT22;69819;48.798;11.770;2024-02-16T09:21:07;21.10;57.70
80495;DHT22;69819;48.798;11.770;2024-02-16T09:23:34;21.40;56.70
80495;DHT22;69819;48.798;11.770;2024-02-16T09:26:01;21.60;56.00
80495;DHT22;69819;48.798;11.770;2024-02-16T09:28:28;21.70;55.40
80495;DHT22;69819;48.798;11.770;2024-02-16T09:30:55;21.70;55.10
80495;DHT22;69819;48.798;11.770;2024-02-16T09:33:22;21.70;54.80
80495;DHT22;69819;48.798;11.770;2024-02-16T09:35:49;21.70;54.40
80495;DHT22;69819;48.798;11.770;2024-02-16T09:38:16;21.60;54.00
80495;DHT22;69819;48.798;11.770;2024-02-16T09:40:42;21.50;53.70
80495;DHT22;69819;48.798;11.770;2024-02-16T09:43:08;21.30;53.50
80495;DHT22;69819;48.798;11.770;2024-02-16T09:45:34;21.20;53.50
80495;DHT22;69819;48.798;11.770;2024-02-16T09:48:01;21.10;53.40
80495;DHT22;69819;48.798;11.770;2024-02-16T09:50:29;21.00;53.20
80495;DHT22;69819;48.798;11.770;2024-02-16T09:52:56;20.80;53.30
80495;DHT22;69819;48.798;11.770;2024-02-16T09:55:23;20.70;53.20
80495;DHT22;69819;48.798;11.770;2024-02-16T09:58:01;20.50;53.40
80495;DHT22;69819;48.798;11.770;2024-02-16T10:00:27;20.50;53.10
80495;DHT22;69819;48.798;11.770;2024-02-16T10:02:53;20.40;53.60
80495;DHT22;69819;48.798;11.770;2024-02-16T10:05:20;20.40;53.50
80495;DHT22;69819;48.798;11.770;2024-02-16T10:07:46;20.40;53.60
80495;DHT22;69819;48.798;11.770;2024-02-16T10:10:24;20.30;53.60
80495;DHT22;69819;48.798;11.770;2024-02-16T10:13:15;20.20;52.90
80495;DHT22;69819;48.798;11.770;2024-02-16T10:15:41;20.20;52.80
80495;DHT22;69819;48.798;11.770;2024-02-16T10:18:07;20.10;53.50
80495;DHT22;69819;48.798;11.770;2024-02-16T10:20:35;20.10;53.70
80495;DHT22;69819;48.798;11.770;2024-02-16T10:25:38;20.10;53.60
80495;DHT22;69819;48.798;11.770;2024-02-16T10:28:08;20.10;53.60
80495;DHT22;69819;48.798;11.770;2024-02-16T10:30:38;20.10;53.70
80495;DHT22;69819;48.798;11.770;2024-02-16T10:33:08;20.10;53.60
80495;DHT22;69819;48.798;11.770;2024-02-16T10:35:35;20.10;53.60
80495;DHT22;69819;48.798;11.770;2024-02-16T10:38:04;20.00;53.50
80495;DHT22;69819;48.798;11.770;2024-02-16T10:40:39;20.00;53.60
80495;DHT22;69819;48.798;11.770;2024-02-16T10:43:07;20.00;53.20
80495;DHT22;69819;48.798;11.770;2024-02-16T10:45:36;20.00;53.60
80495;DHT22;69819;48.798;11.770;2024-02-16T10:48:03;20.00;53.50
80495;DHT22;69819;48.798;11.770;2024-02-16T10:50:32;20.00;53.50
80495;DHT22;69819;48.798;11.770;2024-02-16T10:53:04;20.10;53.50
80495;DHT22;69819;48.798;11.770;2024-02-16T10:55:38;20.10;53.40
80495;DHT22;69819;48.798;11.770;2024-02-16T10:58:07;20.10;53.60
80495;DHT22;69819;48.798;11.770;2024-02-16T11:00:33;20.10;53.40
80495;DHT22;69819;48.798;11.770;2024-02-16T11:03:03;20.20;53.50
80495;DHT22;69819;48.798;11.770;2024-02-16T11:05:35;20.30;53.90
80495;DHT22;69819;48.798;11.770;2024-02-16T11:08:12;20.30;52.80
80495;DHT22;69819;48.798;11.770;2024-02-16T11:10:39;20.40;52.80
80495;DHT22;69819;48.798;11.770;2024-02-16T11:13:28;20.50;53.30
80495;DHT22;69819;48.798;11.770;2024-02-16T11:18:25;20.60;53.00
80495;DHT22;69819;48.798;11.770;2024-02-16T11:20:52;20.80;53.00
80495;DHT22;69819;48.798;11.770;2024-02-16T11:23:27;20.90;52.90
80495;DHT22;69819;48.798;11.770;2024-02-16T11:25:59;21.00;52.60
80495;DHT22;69819;48.798;11.770;2024-02-16T11:28:27;21.10;52.90
80495;DHT22;69819;48.798;11.770;2024-02-16T11:30:54;21.20;52.80
80495;DHT22;69819;48.798;11.770;2024-02-16T11:33:20;21.30;52.80
80495;DHT22;69819;48.798;11.770;2024-02-16T11:36:00;21.40;52.60
80495;DHT22;69819;48.798;11.770;2024-02-16T11:38:30;21.50;51.50
80495;DHT22;69819;48.798;11.770;2024-02-16T11:41:00;21.60;52.40
80495;DHT22;69819;48.798;11.770;2024-02-16T11:43:31;21.60;52.00
80495;DHT22;69819;48.798;11.770;2024-02-16T11:46:14;21.70;52.00
80495;DHT22;69819;48.798;11.770;2024-02-16T11:48:41;21.70;51.10
80495;DHT22;69819;48.798;11.770;2024-02-16T11:51:07;21.80;51.70
80495;DHT22;69819;48.798;11.770;2024-02-16T11:53:33;21.80;51.50
80495;DHT22;69819;48.798;11.770;2024-02-16T11:55:59;21.80;51.30
80495;DHT22;69819;48.798;11.770;2024-02-16T11:58:26;21.80;51.20
80495;DHT22;69819;48.798;11.770;2024-02-16T12:00:52;21.80;51.10
80495;DHT22;69819;48.798;11.770;2024-02-16T12:03:22;21.80;51.10
80495;DHT22;69819;48.798;11.770;2024-02-16T12:05:59;21.80;51.00
80495;DHT22;69819;48.798;11.770;2024-02-16T12:08:32;21.90;50.90
80495;DHT22;69819;48.798;11.770;2024-02-16T12:10:59;21.90;51.10
80495;DHT22;69819;48.798;11.770;2024-02-16T12:13:25;21.80;51.00
80495;DHT22;69819;48.798;11.770;2024-02-16T12:15:52;21.80;50.90
80495;DHT22;69819;48.798;11.770;2024-02-16T12:18:22;21.80;50.80
80495;DHT22;69819;48.798;11.770;2024-02-16T12:21:00;21.80;50.50
80495;DHT22;69819;48.798;11.770;2024-02-16T12:23:27;21.80;50.30
80495;DHT22;69819;48.798;11.770;2024-02-16T12:25:53;21.80;50.30
80495;DHT22;69819;48.798;11.770;2024-02-16T12:28:25;21.80;50.90
80495;DHT22;69819;48.798;11.770;2024-02-16T12:30:55;21.80;50.40
80495;DHT22;69819;48.798;11.770;2024-02-16T12:33:22;21.70;50.60
80495;DHT22;69819;48.798;11.770;2024-02-16T12:35:48;21.70;50.60
80495;DHT22;69819;48.798;11.770;2024-02-16T12:38:14;21.70;50.70
80495;DHT22;69819;48.798;11.770;2024-02-16T12:40:45;21.70;50.70
80495;DHT22;69819;48.798;11.770;2024-02-16T12:43:14;21.70;50.60
80495;DHT22;69819;48.798;11.770;2024-02-16T12:45:41;21.70;50.50
80495;DHT22;69819;48.798;11.770;2024-02-16T12:48:07;21.60;50.20
80495;DHT22;69819;48.798;11.770;2024-02-16T12:50:36;21.70;50.20
80495;DHT22;69819;48.798;11.770;2024-02-16T12:53:03;21.60;50.00
80495;DHT22;69819;48.798;11.770;2024-02-16T12:55:29;21.60;50.00
80495;DHT22;69819;48.798;11.770;2024-02-16T12:57:56;21.60;50.00
80495;DHT22;69819;48.798;11.770;2024-02-16T13:00:22;21.50;49.90
80495;DHT22;69819;48.798;11.770;2024-02-16T13:02:48;21.50;50.00
80495;DHT22;69819;48.798;11.770;2024-02-16T13:05:14;21.50;50.00
80495;DHT22;69819;48.798;11.770;2024-02-16T13:07:40;21.50;50.00
80495;DHT22;69819;48.798;11.770;2024-02-16T13:10:08;21.40;49.90
80495;DHT22;69819;48.798;11.770;2024-02-16T13:12:34;21.40;49.90
80495;DHT22;69819;48.798;11.770;2024-02-16T13:15:02;21.40;49.90
80495;DHT22;69819;48.798;11.770;2024-02-16T13:17:30;21.40;50.00
80495;DHT22;69819;48.798;11.770;2024-02-16T13:19:55;21.40;49.90
80495;DHT22;69819;48.798;11.770;2024-02-16T13:22:29;21.40;49.90
80495;DHT22;69819;48.798;11.770;2024-02-16T13:24:55;21.40;49.90
80495;DHT22;69819;48.798;11.770;2024-02-16T13:27:20;21.30;49.80
80495;DHT22;69819;48.798;11.770;2024-02-16T13:29:46;21.30;49.70
80495;DHT22;69819;48.798;11.770;2024-02-16T13:32:12;21.40;49.90
80495;DHT22;69819;48.798;11.770;2024-02-16T13:34:37;21.30;49.80
80495;DHT22;69819;48.798;11.770;2024-02-16T13:37:03;21.30;49.80
80495;DHT22;69819;48.798;11.770;2024-02-16T13:39:29;21.30;49.80
80495;DHT22;69819;48.798;11.770;2024-02-16T13:41:55;21.30;49.80
80495;DHT22;69819;48.798;11.770;2024-02-16T13:44:22;21.30;49.80
80495;DHT22;69819;48.798;11.770;2024-02-16T13:46:49;21.30;49.80
80495;DHT22;69819;48.798;11.770;2024-02-16T13:49:15;21.30;49.80
80495;DHT22;69819;48.798;11.770;2024-02-16T13:51:41;21.30;49.80
80495;DHT22;69819;48.798;11.770;2024-02-16T13:54:08;21.30;49.80
80495;DHT22;69819;48.798;11.770;2024-02-16T13:56:33;21.30;49.80
80495;DHT22;69819;48.798;11.770;2024-02-16T13:59:02;21.40;49.80
80495;DHT22;69819;48.798;11.770;2024-02-16T14:01:29;21.30;49.60
80495;DHT22;69819;48.798;11.770;2024-02-16T14:03:55;21.30;50.20
80495;DHT22;69819;48.798;11.770;2024-02-16T14:06:21;21.30;49.60
80495;DHT22;69819;48.798;11.770;2024-02-16T14:08:47;21.30;49.60
80495;DHT22;69819;48.798;11.770;2024-02-16T14:11:18;21.30;49.50
80495;DHT22;69819;48.798;11.770;2024-02-16T14:13:44;21.20;49.50
80495;DHT22;69819;48.798;11.770;2024-02-16T14:16:10;21.20;49.40
80495;DHT22;69819;48.798;11.770;2024-02-16T14:18:37;21.20;49.60
80495;DHT22;69819;48.798;11.770;2024-02-16T14:21:03;21.20;49.60
80495;DHT22;69819;48.798;11.770;2024-02-16T14:23:32;21.20;49.50
80495;DHT22;69819;48.798;11.770;2024-02-16T14:25:58;21.20;49.40
80495;DHT22;69819;48.798;11.770;2024-02-16T14:28:25;21.10;49.40
80495;DHT22;69819;48.798;11.770;2024-02-16T14:30:51;21.10;49.40
80495;DHT22;69819;48.798;11.770;2024-02-16T14:33:17;21.10;49.40
80495;DHT22;69819;48.798;11.770;2024-02-16T14:35:43;21.00;49.20
80495;DHT22;69819;48.798;11.770;2024-02-16T14:38:09;21.00;49.20
80495;DHT22;69819;48.798;11.770;2024-02-16T14:40:35;20.90;49.20
80495;DHT22;69819;48.798;11.770;2024-02-16T14:43:01;20.80;49.10
80495;DHT22;69819;48.798;11.770;2024-02-16T14:45:27;20.80;49.20
80495;DHT22;69819;48.798;11.770;2024-02-16T14:47:53;20.60;49.00
80495;DHT22;69819;48.798;11.770;2024-02-16T14:50:19;20.60;49.10
80495;DHT22;69819;48.798;11.770;2024-02-16T14:52:45;20.50;49.10
80495;DHT22;69819;48.798;11.770;2024-02-16T14:55:11;20.40;49.10
80495;DHT22;69819;48.798;11.770;2024-02-16T14:57:42;20.30;49.10
80495;DHT22;69819;48.798;11.770;2024-02-16T15:00:10;20.20;49.20
80495;DHT22;69819;48.798;11.770;2024-02-16T15:02:37;20.10;49.40
80495;DHT22;69819;48.798;11.770;2024-02-16T15:05:05;20.00;49.40
80495;DHT22;69819;48.798;11.770;2024-02-16T15:07:31;19.90;49.50
80495;DHT22;69819;48.798;11.770;2024-02-16T15:09:57;19.90;50.10
80495;DHT22;69819;48.798;11.770;2024-02-16T15:12:23;19.80;49.60
80495;DHT22;69819;48.798;11.770;2024-02-16T15:14:50;19.80;49.80
80495;DHT22;69819;48.798;11.770;2024-02-16T15:17:16;19.70;49.80
80495;DHT22;69819;48.798;11.770;2024-02-16T15:19:44;19.70;49.80
80495;DHT22;69819;48.798;11.770;2024-02-16T15:22:09;19.60;49.80